sensor_id;sensor_type;location;lat;lon;timestamp;P1;durP1;ratioP1;P2;durP2;ratioP2
39848;SDS011;25518;47.878;15.914;2022-07-18T00:00:18;2.53;;;1.40;;
39848;SDS011;25518;47.878;15.914;2022-07-18T00:02:45;3.50;;;1.60;;
39848;SDS011;25518;47.878;15.914;2022-07-18T00:05:11;2.60;;;1.70;;
39848;SDS011;25518;47.878;15.914;2022-07-18T00:07:37;3.08;;;1.63;;
39848;SDS011;25518;47.878;15.914;2022-07-18T00:10:04;3.15;;;1.48;;
39848;SDS011;25518;47.878;15.914;2022-07-18T00:12:31;3.47;;;1.70;;
39848;SDS011;25518;47.878;15.914;2022-07-18T00:14:57;3.47;;;1.58;;
39848;SDS011;25518;47.878;15.914;2022-07-18T00:17:23;2.58;;;1.52;;
39848;SDS011;25518;47.878;15.914;2022-07-18T00:19:50;3.97;;;1.73;;
39848;SDS011;25518;47.878;15.914;2022-07-18T00:22:17;2.38;;;1.50;;
39848;SDS011;25518;47.878;15.914;2022-07-18T00:24:43;3.58;;;1.80;;
39848;SDS011;25518;47.878;15.914;2022-07-18T00:27:10;3.35;;;1.50;;
39848;SDS011;25518;47.878;15.914;2022-07-18T00:29:36;3.63;;;1.83;;
39848;SDS011;25518;47.878;15.914;2022-07-18T00:32:03;3.90;;;1.70;;
39848;SDS011;25518;47.878;15.914;2022-07-18T00:34:30;4.90;;;1.83;;
39848;SDS011;25518;47.878;15.914;2022-07-18T00:36:56;4.38;;;1.70;;
39848;SDS011;25518;47.878;15.914;2022-07-18T00:39:23;3.30;;;1.90;;
39848;SDS011;25518;47.878;15.914;2022-07-18T00:41:49;2.83;;;1.75;;
39848;SDS011;25518;47.878;15.914;2022-07-18T00:44:17;3.08;;;1.63;;
39848;SDS011;25518;47.878;15.914;2022-07-18T00:46:43;3.00;;;1.67;;
39848;SDS011;25518;47.878;15.914;2022-07-18T00:49:10;3.40;;;1.67;;
39848;SDS011;25518;47.878;15.914;2022-07-18T00:51:36;2.85;;;1.60;;
39848;SDS011;25518;47.878;15.914;2022-07-18T00:54:03;3.83;;;1.70;;
39848;SDS011;25518;47.878;15.914;2022-07-18T00:56:30;4.00;;;1.80;;
39848;SDS011;25518;47.878;15.914;2022-07-18T00:58:56;3.42;;;1.70;;
39848;SDS011;25518;47.878;15.914;2022-07-18T01:01:22;3.40;;;1.92;;
39848;SDS011;25518;47.878;15.914;2022-07-18T01:04:09;2.50;;;1.40;;
39848;SDS011;25518;47.878;15.914;2022-07-18T01:06:36;2.70;;;1.60;;
39848;SDS011;25518;47.878;15.914;2022-07-18T01:09:03;2.50;;;1.50;;
39848;SDS011;25518;47.878;15.914;2022-07-18T01:11:29;3.38;;;1.95;;
39848;SDS011;25518;47.878;15.914;2022-07-18T01:13:55;3.25;;;1.92;;
39848;SDS011;25518;47.878;15.914;2022-07-18T01:16:21;2.67;;;1.70;;
39848;SDS011;25518;47.878;15.914;2022-07-18T01:18:48;3.77;;;1.80;;
39848;SDS011;25518;47.878;15.914;2022-07-18T01:21:15;4.15;;;1.80;;
39848;SDS011;25518;47.878;15.914;2022-07-18T01:23:42;4.43;;;1.90;;
39848;SDS011;25518;47.878;15.914;2022-07-18T01:26:08;3.70;;;1.80;;
39848;SDS011;25518;47.878;15.914;2022-07-18T01:28:34;3.67;;;1.98;;
39848;SDS011;25518;47.878;15.914;2022-07-18T01:31:01;2.63;;;1.40;;
39848;SDS011;25518;47.878;15.914;2022-07-18T01:33:27;2.90;;;1.60;;
39848;SDS011;25518;47.878;15.914;2022-07-18T01:35:57;2.92;;;1.55;;
39848;SDS011;25518;47.878;15.914;2022-07-18T01:38:24;2.65;;;1.60;;
39848;SDS011;25518;47.878;15.914;2022-07-18T01:40:50;2.25;;;1.30;;
39848;SDS011;25518;47.878;15.914;2022-07-18T01:43:17;2.50;;;1.60;;
39848;SDS011;25518;47.878;15.914;2022-07-18T01:45:43;3.40;;;1.70;;
39848;SDS011;25518;47.878;15.914;2022-07-18T01:48:09;3.10;;;1.60;;
39848;SDS011;25518;47.878;15.914;2022-07-18T01:50:35;3.08;;;1.55;;
39848;SDS011;25518;47.878;15.914;2022-07-18T01:53:02;4.75;;;1.63;;
39848;SDS011;25518;47.878;15.914;2022-07-18T01:55:28;2.33;;;1.70;;
39848;SDS011;25518;47.878;15.914;2022-07-18T01:57:54;5.03;;;1.67;;
39848;SDS011;25518;47.878;15.914;2022-07-18T02:00:20;3.85;;;2.00;;
39848;SDS011;25518;47.878;15.914;2022-07-18T02:02:47;2.85;;;1.50;;
39848;SDS011;25518;47.878;15.914;2022-07-18T02:05:13;3.13;;;1.70;;
39848;SDS011;25518;47.878;15.914;2022-07-18T02:07:40;4.43;;;1.80;;
39848;SDS011;25518;47.878;15.914;2022-07-18T02:10:07;3.63;;;1.70;;
39848;SDS011;25518;47.878;15.914;2022-07-18T02:12:34;3.63;;;1.60;;
39848;SDS011;25518;47.878;15.914;2022-07-18T02:15:01;3.05;;;1.50;;
39848;SDS011;25518;47.878;15.914;2022-07-18T02:17:27;2.55;;;1.60;;
39848;SDS011;25518;47.878;15.914;2022-07-18T02:19:54;3.40;;;2.05;;
39848;SDS011;25518;47.878;15.914;2022-07-18T02:22:20;3.15;;;1.52;;
39848;SDS011;25518;47.878;15.914;2022-07-18T02:24:46;3.03;;;1.70;;
39848;SDS011;25518;47.878;15.914;2022-07-18T02:27:13;3.67;;;1.92;;
39848;SDS011;25518;47.878;15.914;2022-07-18T02:29:39;2.90;;;1.63;;
39848;SDS011;25518;47.878;15.914;2022-07-18T02:32:05;3.88;;;1.85;;
39848;SDS011;25518;47.878;15.914;2022-07-18T02:34:31;2.60;;;1.60;;
39848;SDS011;25518;47.878;15.914;2022-07-18T02:36:58;2.78;;;1.60;;
39848;SDS011;25518;47.878;15.914;2022-07-18T02:39:24;3.80;;;1.90;;
39848;SDS011;25518;47.878;15.914;2022-07-18T02:41:50;3.33;;;1.67;;
39848;SDS011;25518;47.878;15.914;2022-07-18T02:44:16;4.20;;;2.10;;
39848;SDS011;25518;47.878;15.914;2022-07-18T02:46:42;2.93;;;1.90;;
39848;SDS011;25518;47.878;15.914;2022-07-18T02:49:09;3.15;;;1.98;;
39848;SDS011;25518;47.878;15.914;2022-07-18T02:51:35;2.35;;;1.60;;
39848;SDS011;25518;47.878;15.914;2022-07-18T02:54:01;3.13;;;1.92;;
39848;SDS011;25518;47.878;15.914;2022-07-18T02:56:27;3.50;;;1.60;;
39848;SDS011;25518;47.878;15.914;2022-07-18T02:58:54;3.05;;;1.80;;
39848;SDS011;25518;47.878;15.914;2022-07-18T03:01:20;3.77;;;1.80;;
39848;SDS011;25518;47.878;15.914;2022-07-18T03:03:46;2.83;;;1.40;;
39848;SDS011;25518;47.878;15.914;2022-07-18T03:06:12;3.33;;;1.70;;
39848;SDS011;25518;47.878;15.914;2022-07-18T03:08:39;3.67;;;1.80;;
39848;SDS011;25518;47.878;15.914;2022-07-18T03:28:07;2.33;;;1.40;;
39848;SDS011;25518;47.878;15.914;2022-07-18T03:30:33;3.10;;;1.90;;
39848;SDS011;25518;47.878;15.914;2022-07-18T03:33:00;2.65;;;1.65;;
39848;SDS011;25518;47.878;15.914;2022-07-18T03:35:26;2.60;;;1.67;;
39848;SDS011;25518;47.878;15.914;2022-07-18T03:37:52;3.47;;;1.90;;
39848;SDS011;25518;47.878;15.914;2022-07-18T03:40:18;3.58;;;1.83;;
39848;SDS011;25518;47.878;15.914;2022-07-18T03:42:45;3.15;;;1.70;;
39848;SDS011;25518;47.878;15.914;2022-07-18T03:45:11;4.47;;;1.77;;
39848;SDS011;25518;47.878;15.914;2022-07-18T03:47:37;2.35;;;1.50;;
39848;SDS011;25518;47.878;15.914;2022-07-18T03:50:03;2.35;;;1.40;;
39848;SDS011;25518;47.878;15.914;2022-07-18T03:52:29;2.95;;;1.55;;
39848;SDS011;25518;47.878;15.914;2022-07-18T03:54:56;3.08;;;1.70;;
39848;SDS011;25518;47.878;15.914;2022-07-18T03:57:22;3.08;;;1.65;;
39848;SDS011;25518;47.878;15.914;2022-07-18T03:59:48;3.83;;;1.50;;
39848;SDS011;25518;47.878;15.914;2022-07-18T04:02:14;2.92;;;1.65;;
39848;SDS011;25518;47.878;15.914;2022-07-18T04:04:40;3.35;;;1.80;;
39848;SDS011;25518;47.878;15.914;2022-07-18T04:07:07;4.50;;;1.70;;
39848;SDS011;25518;47.878;15.914;2022-07-18T04:09:33;2.90;;;1.80;;
39848;SDS011;25518;47.878;15.914;2022-07-18T04:11:59;3.20;;;1.50;;
39848;SDS011;25518;47.878;15.914;2022-07-18T04:14:25;2.70;;;1.55;;
39848;SDS011;25518;47.878;15.914;2022-07-18T04:16:52;5.28;;;2.10;;
39848;SDS011;25518;47.878;15.914;2022-07-18T04:19:19;2.77;;;1.63;;
39848;SDS011;25518;47.878;15.914;2022-07-18T04:21:47;2.70;;;1.50;;
39848;SDS011;25518;47.878;15.914;2022-07-18T04:24:14;3.00;;;1.52;;
39848;SDS011;25518;47.878;15.914;2022-07-18T04:26:40;3.45;;;1.70;;
39848;SDS011;25518;47.878;15.914;2022-07-18T04:29:06;3.95;;;1.60;;
39848;SDS011;25518;47.878;15.914;2022-07-18T04:31:32;7.78;;;3.72;;
39848;SDS011;25518;47.878;15.914;2022-07-18T04:33:59;6.80;;;3.13;;
39848;SDS011;25518;47.878;15.914;2022-07-18T04:36:25;4.50;;;1.60;;
39848;SDS011;25518;47.878;15.914;2022-07-18T04:38:51;2.88;;;1.67;;
39848;SDS011;25518;47.878;15.914;2022-07-18T04:41:18;3.08;;;1.67;;
39848;SDS011;25518;47.878;15.914;2022-07-18T04:43:47;3.50;;;1.73;;
39848;SDS011;25518;47.878;15.914;2022-07-18T04:46:13;5.70;;;1.80;;
39848;SDS011;25518;47.878;15.914;2022-07-18T04:48:40;3.15;;;1.58;;
39848;SDS011;25518;47.878;15.914;2022-07-18T04:51:06;2.93;;;1.47;;
39848;SDS011;25518;47.878;15.914;2022-07-18T04:53:32;3.70;;;1.60;;
39848;SDS011;25518;47.878;15.914;2022-07-18T04:55:58;2.70;;;1.63;;
39848;SDS011;25518;47.878;15.914;2022-07-18T04:58:24;3.60;;;1.73;;
39848;SDS011;25518;47.878;15.914;2022-07-18T05:00:51;2.85;;;1.75;;
39848;SDS011;25518;47.878;15.914;2022-07-18T05:03:18;3.80;;;1.73;;
39848;SDS011;25518;47.878;15.914;2022-07-18T05:05:44;3.70;;;1.60;;
39848;SDS011;25518;47.878;15.914;2022-07-18T05:08:10;2.95;;;1.50;;
39848;SDS011;25518;47.878;15.914;2022-07-18T05:10:39;3.15;;;1.50;;
39848;SDS011;25518;47.878;15.914;2022-07-18T05:13:05;2.38;;;1.42;;
39848;SDS011;25518;47.878;15.914;2022-07-18T05:15:32;2.65;;;1.75;;
39848;SDS011;25518;47.878;15.914;2022-07-18T05:17:58;2.88;;;1.40;;
39848;SDS011;25518;47.878;15.914;2022-07-18T05:20:25;2.42;;;1.48;;
39848;SDS011;25518;47.878;15.914;2022-07-18T05:22:52;2.75;;;1.23;;
39848;SDS011;25518;47.878;15.914;2022-07-18T05:25:19;3.30;;;1.50;;
39848;SDS011;25518;47.878;15.914;2022-07-18T05:27:47;3.33;;;1.60;;
39848;SDS011;25518;47.878;15.914;2022-07-18T05:30:14;3.23;;;1.60;;
39848;SDS011;25518;47.878;15.914;2022-07-18T05:32:40;3.22;;;1.65;;
39848;SDS011;25518;47.878;15.914;2022-07-18T05:35:07;2.80;;;1.60;;
39848;SDS011;25518;47.878;15.914;2022-07-18T05:37:34;2.85;;;1.60;;
39848;SDS011;25518;47.878;15.914;2022-07-18T05:40:03;2.80;;;1.45;;
39848;SDS011;25518;47.878;15.914;2022-07-18T05:42:29;2.75;;;1.60;;
39848;SDS011;25518;47.878;15.914;2022-07-18T05:44:55;2.70;;;1.60;;
39848;SDS011;25518;47.878;15.914;2022-07-18T05:47:22;3.10;;;1.75;;
39848;SDS011;25518;47.878;15.914;2022-07-18T05:49:48;2.60;;;1.48;;
39848;SDS011;25518;47.878;15.914;2022-07-18T05:52:14;4.55;;;1.73;;
39848;SDS011;25518;47.878;15.914;2022-07-18T05:54:40;3.17;;;1.70;;
39848;SDS011;25518;47.878;15.914;2022-07-18T05:57:06;3.33;;;1.52;;
39848;SDS011;25518;47.878;15.914;2022-07-18T05:59:33;2.60;;;1.40;;
39848;SDS011;25518;47.878;15.914;2022-07-18T06:01:59;3.20;;;1.67;;
39848;SDS011;25518;47.878;15.914;2022-07-18T06:04:26;2.22;;;1.40;;
39848;SDS011;25518;47.878;15.914;2022-07-18T06:06:52;2.70;;;1.60;;
39848;SDS011;25518;47.878;15.914;2022-07-18T06:09:18;2.55;;;1.50;;
39848;SDS011;25518;47.878;15.914;2022-07-18T06:11:44;3.53;;;1.50;;
39848;SDS011;25518;47.878;15.914;2022-07-18T06:14:10;3.47;;;1.60;;
39848;SDS011;25518;47.878;15.914;2022-07-18T06:16:37;2.63;;;1.40;;
39848;SDS011;25518;47.878;15.914;2022-07-18T06:19:03;4.07;;;1.60;;
39848;SDS011;25518;47.878;15.914;2022-07-18T06:21:29;3.35;;;1.80;;
39848;SDS011;25518;47.878;15.914;2022-07-18T06:23:55;4.72;;;2.20;;
39848;SDS011;25518;47.878;15.914;2022-07-18T06:26:21;3.05;;;1.48;;
39848;SDS011;25518;47.878;15.914;2022-07-18T06:28:48;2.95;;;1.50;;
39848;SDS011;25518;47.878;15.914;2022-07-18T06:31:14;4.20;;;1.40;;
39848;SDS011;25518;47.878;15.914;2022-07-18T06:33:41;2.95;;;1.50;;
39848;SDS011;25518;47.878;15.914;2022-07-18T06:36:08;2.60;;;1.50;;
39848;SDS011;25518;47.878;15.914;2022-07-18T06:38:39;3.70;;;1.60;;
39848;SDS011;25518;47.878;15.914;2022-07-18T06:41:05;2.85;;;1.50;;
39848;SDS011;25518;47.878;15.914;2022-07-18T06:43:33;3.88;;;1.70;;
39848;SDS011;25518;47.878;15.914;2022-07-18T06:45:59;3.60;;;1.58;;
39848;SDS011;25518;47.878;15.914;2022-07-18T06:48:25;3.53;;;1.58;;
39848;SDS011;25518;47.878;15.914;2022-07-18T06:50:54;3.80;;;1.77;;
39848;SDS011;25518;47.878;15.914;2022-07-18T06:53:20;2.90;;;1.40;;
39848;SDS011;25518;47.878;15.914;2022-07-18T06:55:46;2.65;;;1.42;;
39848;SDS011;25518;47.878;15.914;2022-07-18T06:58:12;3.13;;;2.00;;
39848;SDS011;25518;47.878;15.914;2022-07-18T07:00:39;2.60;;;1.50;;
39848;SDS011;25518;47.878;15.914;2022-07-18T07:03:05;2.85;;;1.63;;
39848;SDS011;25518;47.878;15.914;2022-07-18T07:05:31;3.10;;;1.55;;
39848;SDS011;25518;47.878;15.914;2022-07-18T07:07:58;3.67;;;1.50;;
39848;SDS011;25518;47.878;15.914;2022-07-18T07:10:24;3.63;;;1.83;;
39848;SDS011;25518;47.878;15.914;2022-07-18T07:12:51;3.37;;;1.60;;
39848;SDS011;25518;47.878;15.914;2022-07-18T07:15:18;2.60;;;1.50;;
39848;SDS011;25518;47.878;15.914;2022-07-18T07:17:45;2.57;;;1.37;;
39848;SDS011;25518;47.878;15.914;2022-07-18T07:20:11;2.70;;;1.40;;
39848;SDS011;25518;47.878;15.914;2022-07-18T07:22:45;4.10;;;1.67;;
39848;SDS011;25518;47.878;15.914;2022-07-18T07:25:13;3.33;;;1.40;;
39848;SDS011;25518;47.878;15.914;2022-07-18T07:27:39;2.70;;;1.33;;
39848;SDS011;25518;47.878;15.914;2022-07-18T07:30:06;4.35;;;1.50;;
39848;SDS011;25518;47.878;15.914;2022-07-18T07:32:33;3.28;;;1.67;;
39848;SDS011;25518;47.878;15.914;2022-07-18T07:35:00;3.35;;;1.63;;
39848;SDS011;25518;47.878;15.914;2022-07-18T07:37:27;3.17;;;1.90;;
39848;SDS011;25518;47.878;15.914;2022-07-18T07:39:53;2.60;;;1.45;;
39848;SDS011;25518;47.878;15.914;2022-07-18T07:42:19;3.05;;;1.70;;
39848;SDS011;25518;47.878;15.914;2022-07-18T07:44:45;3.80;;;1.50;;
39848;SDS011;25518;47.878;15.914;2022-07-18T07:47:11;3.00;;;1.65;;
39848;SDS011;25518;47.878;15.914;2022-07-18T07:49:38;3.83;;;1.75;;
39848;SDS011;25518;47.878;15.914;2022-07-18T07:52:04;2.70;;;1.42;;
39848;SDS011;25518;47.878;15.914;2022-07-18T07:54:30;2.88;;;1.50;;
39848;SDS011;25518;47.878;15.914;2022-07-18T07:56:56;2.92;;;1.60;;
39848;SDS011;25518;47.878;15.914;2022-07-18T07:59:23;3.35;;;1.40;;
39848;SDS011;25518;47.878;15.914;2022-07-18T08:01:49;3.88;;;1.17;;
39848;SDS011;25518;47.878;15.914;2022-07-18T08:04:15;2.05;;;1.23;;
39848;SDS011;25518;47.878;15.914;2022-07-18T08:06:42;2.97;;;1.38;;
39848;SDS011;25518;47.878;15.914;2022-07-18T08:09:08;2.00;;;1.10;;
39848;SDS011;25518;47.878;15.914;2022-07-18T08:11:34;4.70;;;1.35;;
39848;SDS011;25518;47.878;15.914;2022-07-18T08:14:00;2.00;;;1.10;;
39848;SDS011;25518;47.878;15.914;2022-07-18T08:16:26;3.47;;;1.00;;
39848;SDS011;25518;47.878;15.914;2022-07-18T08:18:52;2.25;;;1.02;;
39848;SDS011;25518;47.878;15.914;2022-07-18T08:21:19;1.55;;;0.90;;
39848;SDS011;25518;47.878;15.914;2022-07-18T08:23:45;4.73;;;1.07;;
39848;SDS011;25518;47.878;15.914;2022-07-18T08:26:13;2.13;;;1.10;;
39848;SDS011;25518;47.878;15.914;2022-07-18T08:28:39;4.30;;;1.27;;
39848;SDS011;25518;47.878;15.914;2022-07-18T08:31:06;3.00;;;1.52;;
39848;SDS011;25518;47.878;15.914;2022-07-18T08:33:32;1.25;;;0.80;;
39848;SDS011;25518;47.878;15.914;2022-07-18T08:35:58;2.33;;;1.00;;
39848;SDS011;25518;47.878;15.914;2022-07-18T08:38:24;2.43;;;0.80;;
39848;SDS011;25518;47.878;15.914;2022-07-18T08:40:51;1.98;;;0.80;;
39848;SDS011;25518;47.878;15.914;2022-07-18T08:43:18;2.78;;;1.20;;
39848;SDS011;25518;47.878;15.914;2022-07-18T08:45:45;2.05;;;1.00;;
39848;SDS011;25518;47.878;15.914;2022-07-18T08:48:13;3.03;;;0.90;;
39848;SDS011;25518;47.878;15.914;2022-07-18T08:50:42;3.95;;;1.40;;
39848;SDS011;25518;47.878;15.914;2022-07-18T08:53:10;2.28;;;1.10;;
39848;SDS011;25518;47.878;15.914;2022-07-18T08:55:37;1.55;;;0.80;;
39848;SDS011;25518;47.878;15.914;2022-07-18T08:58:03;2.67;;;0.90;;
39848;SDS011;25518;47.878;15.914;2022-07-18T09:00:29;3.15;;;1.00;;
39848;SDS011;25518;47.878;15.914;2022-07-18T09:02:56;2.78;;;0.80;;
39848;SDS011;25518;47.878;15.914;2022-07-18T09:05:23;2.40;;;0.87;;
39848;SDS011;25518;47.878;15.914;2022-07-18T09:07:49;2.70;;;0.77;;
39848;SDS011;25518;47.878;15.914;2022-07-18T09:10:15;3.42;;;0.95;;
39848;SDS011;25518;47.878;15.914;2022-07-18T09:12:54;2.05;;;0.90;;
39848;SDS011;25518;47.878;15.914;2022-07-18T09:15:21;2.58;;;0.90;;
39848;SDS011;25518;47.878;15.914;2022-07-18T09:17:48;3.90;;;1.20;;
39848;SDS011;25518;47.878;15.914;2022-07-18T09:20:15;2.88;;;1.00;;
39848;SDS011;25518;47.878;15.914;2022-07-18T09:22:43;2.27;;;1.13;;
39848;SDS011;25518;47.878;15.914;2022-07-18T09:25:11;1.67;;;0.98;;
39848;SDS011;25518;47.878;15.914;2022-07-18T09:27:38;1.97;;;1.00;;
39848;SDS011;25518;47.878;15.914;2022-07-18T09:32:31;2.75;;;1.17;;
39848;SDS011;25518;47.878;15.914;2022-07-18T09:35:03;2.23;;;1.00;;
39848;SDS011;25518;47.878;15.914;2022-07-18T09:37:30;2.38;;;1.08;;
39848;SDS011;25518;47.878;15.914;2022-07-18T09:40:13;1.95;;;1.05;;
39848;SDS011;25518;47.878;15.914;2022-07-18T09:42:40;4.25;;;1.27;;
39848;SDS011;25518;47.878;15.914;2022-07-18T09:45:06;4.60;;;1.27;;
39848;SDS011;25518;47.878;15.914;2022-07-18T09:47:51;2.53;;;1.02;;
39848;SDS011;25518;47.878;15.914;2022-07-18T09:50:35;1.48;;;0.90;;
39848;SDS011;25518;47.878;15.914;2022-07-18T09:55:32;1.80;;;1.00;;
39848;SDS011;25518;47.878;15.914;2022-07-18T09:57:59;2.95;;;0.98;;
39848;SDS011;25518;47.878;15.914;2022-07-18T10:00:27;2.55;;;1.00;;
39848;SDS011;25518;47.878;15.914;2022-07-18T10:02:54;2.85;;;1.05;;
39848;SDS011;25518;47.878;15.914;2022-07-18T10:05:22;3.95;;;1.50;;
39848;SDS011;25518;47.878;15.914;2022-07-18T10:07:53;2.53;;;1.10;;
39848;SDS011;25518;47.878;15.914;2022-07-18T10:10:20;2.40;;;1.10;;
39848;SDS011;25518;47.878;15.914;2022-07-18T10:12:53;2.25;;;1.10;;
39848;SDS011;25518;47.878;15.914;2022-07-18T10:15:21;1.67;;;0.80;;
39848;SDS011;25518;47.878;15.914;2022-07-18T10:17:48;2.45;;;1.05;;
39848;SDS011;25518;47.878;15.914;2022-07-18T10:20:14;3.05;;;1.10;;
39848;SDS011;25518;47.878;15.914;2022-07-18T10:22:41;3.40;;;1.17;;
39848;SDS011;25518;47.878;15.914;2022-07-18T10:25:09;3.85;;;1.13;;
39848;SDS011;25518;47.878;15.914;2022-07-18T10:30:31;3.58;;;1.20;;
39848;SDS011;25518;47.878;15.914;2022-07-18T10:32:57;2.63;;;1.00;;
39848;SDS011;25518;47.878;15.914;2022-07-18T10:35:58;3.17;;;1.20;;
39848;SDS011;25518;47.878;15.914;2022-07-18T10:38:25;4.80;;;1.30;;
39848;SDS011;25518;47.878;15.914;2022-07-18T10:41:08;9.27;;;1.63;;
39848;SDS011;25518;47.878;15.914;2022-07-18T10:43:37;3.28;;;1.17;;
39848;SDS011;25518;47.878;15.914;2022-07-18T10:46:04;3.50;;;1.38;;
39848;SDS011;25518;47.878;15.914;2022-07-18T10:51:00;2.75;;;1.08;;
39848;SDS011;25518;47.878;15.914;2022-07-18T10:53:58;3.28;;;1.10;;
39848;SDS011;25518;47.878;15.914;2022-07-18T10:56:13;4.55;;;1.30;;
39848;SDS011;25518;47.878;15.914;2022-07-18T10:58:39;2.72;;;1.08;;
39848;SDS011;25518;47.878;15.914;2022-07-18T11:01:06;3.67;;;1.35;;
39848;SDS011;25518;47.878;15.914;2022-07-18T11:03:37;5.15;;;1.20;;
39848;SDS011;25518;47.878;15.914;2022-07-18T11:06:03;2.38;;;1.00;;
39848;SDS011;25518;47.878;15.914;2022-07-18T11:08:30;2.30;;;1.08;;
39848;SDS011;25518;47.878;15.914;2022-07-18T11:13:32;2.00;;;0.90;;
39848;SDS011;25518;47.878;15.914;2022-07-18T11:16:05;1.95;;;1.05;;
39848;SDS011;25518;47.878;15.914;2022-07-18T11:23:43;3.10;;;1.20;;
39848;SDS011;25518;47.878;15.914;2022-07-18T11:26:15;3.03;;;1.20;;
39848;SDS011;25518;47.878;15.914;2022-07-18T11:28:42;3.38;;;1.00;;
39848;SDS011;25518;47.878;15.914;2022-07-18T11:31:09;3.38;;;0.93;;
39848;SDS011;25518;47.878;15.914;2022-07-18T11:33:37;4.35;;;1.33;;
39848;SDS011;25518;47.878;15.914;2022-07-18T11:36:04;5.25;;;1.30;;
39848;SDS011;25518;47.878;15.914;2022-07-18T11:38:31;3.00;;;1.10;;
39848;SDS011;25518;47.878;15.914;2022-07-18T11:40:57;2.58;;;1.17;;
39848;SDS011;25518;47.878;15.914;2022-07-18T11:43:24;4.03;;;1.30;;
39848;SDS011;25518;47.878;15.914;2022-07-18T11:45:59;3.72;;;1.10;;
39848;SDS011;25518;47.878;15.914;2022-07-18T11:48:26;3.15;;;1.10;;
39848;SDS011;25518;47.878;15.914;2022-07-18T11:50:52;4.53;;;1.13;;
39848;SDS011;25518;47.878;15.914;2022-07-18T11:53:19;2.60;;;1.20;;
39848;SDS011;25518;47.878;15.914;2022-07-18T11:55:45;2.73;;;1.00;;
39848;SDS011;25518;47.878;15.914;2022-07-18T11:58:14;2.00;;;1.10;;
39848;SDS011;25518;47.878;15.914;2022-07-18T12:00:41;3.50;;;1.20;;
39848;SDS011;25518;47.878;15.914;2022-07-18T12:03:09;2.92;;;1.10;;
39848;SDS011;25518;47.878;15.914;2022-07-18T12:05:37;2.67;;;0.90;;
39848;SDS011;25518;47.878;15.914;2022-07-18T12:11:28;2.93;;;1.00;;
39848;SDS011;25518;47.878;15.914;2022-07-18T12:16:06;2.75;;;1.00;;
39848;SDS011;25518;47.878;15.914;2022-07-18T12:18:32;1.98;;;1.00;;
39848;SDS011;25518;47.878;15.914;2022-07-18T12:21:07;2.13;;;1.25;;
39848;SDS011;25518;47.878;15.914;2022-07-18T12:23:33;3.25;;;1.10;;
39848;SDS011;25518;47.878;15.914;2022-07-18T12:25:59;2.20;;;0.90;;
39848;SDS011;25518;47.878;15.914;2022-07-18T12:28:26;3.10;;;1.00;;
39848;SDS011;25518;47.878;15.914;2022-07-18T12:30:53;3.17;;;1.20;;
39848;SDS011;25518;47.878;15.914;2022-07-18T12:33:19;3.30;;;1.10;;
39848;SDS011;25518;47.878;15.914;2022-07-18T12:35:48;3.45;;;1.08;;
39848;SDS011;25518;47.878;15.914;2022-07-18T12:38:20;2.30;;;1.10;;
39848;SDS011;25518;47.878;15.914;2022-07-18T12:40:48;3.45;;;1.13;;
39848;SDS011;25518;47.878;15.914;2022-07-18T12:45:51;2.10;;;1.00;;
39848;SDS011;25518;47.878;15.914;2022-07-18T12:48:17;2.28;;;0.95;;
39848;SDS011;25518;47.878;15.914;2022-07-18T12:50:44;2.53;;;1.30;;
39848;SDS011;25518;47.878;15.914;2022-07-18T12:53:10;2.35;;;0.80;;
39848;SDS011;25518;47.878;15.914;2022-07-18T12:55:37;4.47;;;1.27;;
39848;SDS011;25518;47.878;15.914;2022-07-18T12:58:05;2.85;;;1.00;;
39848;SDS011;25518;47.878;15.914;2022-07-18T13:00:31;2.40;;;1.00;;
39848;SDS011;25518;47.878;15.914;2022-07-18T13:02:58;2.10;;;1.23;;
39848;SDS011;25518;47.878;15.914;2022-07-18T13:05:26;3.60;;;0.93;;
39848;SDS011;25518;47.878;15.914;2022-07-18T13:07:52;3.45;;;0.90;;
39848;SDS011;25518;47.878;15.914;2022-07-18T13:10:19;3.33;;;1.00;;
39848;SDS011;25518;47.878;15.914;2022-07-18T13:12:45;2.83;;;1.10;;
39848;SDS011;25518;47.878;15.914;2022-07-18T13:15:11;2.00;;;0.90;;
39848;SDS011;25518;47.878;15.914;2022-07-18T13:17:38;2.72;;;1.02;;
39848;SDS011;25518;47.878;15.914;2022-07-18T13:20:05;4.32;;;1.10;;
39848;SDS011;25518;47.878;15.914;2022-07-18T13:22:31;2.60;;;1.10;;
39848;SDS011;25518;47.878;15.914;2022-07-18T13:25:04;3.72;;;1.10;;
39848;SDS011;25518;47.878;15.914;2022-07-18T13:27:31;3.80;;;1.00;;
39848;SDS011;25518;47.878;15.914;2022-07-18T13:29:57;2.42;;;1.10;;
39848;SDS011;25518;47.878;15.914;2022-07-18T13:32:25;3.03;;;0.90;;
39848;SDS011;25518;47.878;15.914;2022-07-18T13:34:52;3.80;;;1.40;;
39848;SDS011;25518;47.878;15.914;2022-07-18T13:37:18;3.03;;;1.10;;
39848;SDS011;25518;47.878;15.914;2022-07-18T13:39:44;2.87;;;1.10;;
39848;SDS011;25518;47.878;15.914;2022-07-18T13:42:10;4.72;;;1.23;;
39848;SDS011;25518;47.878;15.914;2022-07-18T13:44:37;3.45;;;1.17;;
39848;SDS011;25518;47.878;15.914;2022-07-18T13:47:03;3.42;;;1.10;;
39848;SDS011;25518;47.878;15.914;2022-07-18T13:49:29;3.17;;;1.10;;
39848;SDS011;25518;47.878;15.914;2022-07-18T13:51:55;2.22;;;0.90;;
39848;SDS011;25518;47.878;15.914;2022-07-18T13:54:22;3.20;;;1.00;;
39848;SDS011;25518;47.878;15.914;2022-07-18T13:56:48;2.70;;;0.90;;
39848;SDS011;25518;47.878;15.914;2022-07-18T13:59:14;2.65;;;1.05;;
39848;SDS011;25518;47.878;15.914;2022-07-18T14:01:41;2.42;;;1.05;;
39848;SDS011;25518;47.878;15.914;2022-07-18T14:04:07;1.92;;;0.90;;
39848;SDS011;25518;47.878;15.914;2022-07-18T14:06:34;2.07;;;1.20;;
39848;SDS011;25518;47.878;15.914;2022-07-18T14:09:02;2.58;;;1.17;;
39848;SDS011;25518;47.878;15.914;2022-07-18T14:11:28;3.15;;;0.98;;
39848;SDS011;25518;47.878;15.914;2022-07-18T14:13:57;1.75;;;0.80;;
39848;SDS011;25518;47.878;15.914;2022-07-18T14:16:24;3.92;;;1.20;;
39848;SDS011;25518;47.878;15.914;2022-07-18T14:18:50;3.22;;;1.15;;
39848;SDS011;25518;47.878;15.914;2022-07-18T14:21:17;1.67;;;1.10;;
39848;SDS011;25518;47.878;15.914;2022-07-18T14:23:43;2.40;;;1.10;;
39848;SDS011;25518;47.878;15.914;2022-07-18T14:26:09;3.45;;;1.15;;
39848;SDS011;25518;47.878;15.914;2022-07-18T14:28:36;2.10;;;0.97;;
39848;SDS011;25518;47.878;15.914;2022-07-18T14:31:02;2.50;;;1.10;;
39848;SDS011;25518;47.878;15.914;2022-07-18T14:33:28;4.03;;;1.30;;
39848;SDS011;25518;47.878;15.914;2022-07-18T14:35:54;4.75;;;1.10;;
39848;SDS011;25518;47.878;15.914;2022-07-18T14:38:21;2.40;;;1.02;;
39848;SDS011;25518;47.878;15.914;2022-07-18T14:40:47;2.23;;;1.03;;
39848;SDS011;25518;47.878;15.914;2022-07-18T14:43:13;3.00;;;1.10;;
39848;SDS011;25518;47.878;15.914;2022-07-18T14:45:39;2.58;;;0.95;;
39848;SDS011;25518;47.878;15.914;2022-07-18T14:48:06;1.98;;;0.88;;
39848;SDS011;25518;47.878;15.914;2022-07-18T14:50:32;2.65;;;0.85;;
39848;SDS011;25518;47.878;15.914;2022-07-18T14:52:58;2.92;;;1.00;;
39848;SDS011;25518;47.878;15.914;2022-07-18T14:55:25;2.05;;;1.10;;
39848;SDS011;25518;47.878;15.914;2022-07-18T14:57:51;4.47;;;1.20;;
39848;SDS011;25518;47.878;15.914;2022-07-18T15:00:17;3.78;;;1.50;;
39848;SDS011;25518;47.878;15.914;2022-07-18T15:02:43;2.25;;;1.15;;
39848;SDS011;25518;47.878;15.914;2022-07-18T15:05:10;2.70;;;1.10;;
39848;SDS011;25518;47.878;15.914;2022-07-18T15:07:36;2.23;;;1.00;;
39848;SDS011;25518;47.878;15.914;2022-07-18T15:10:03;3.70;;;1.80;;
39848;SDS011;25518;47.878;15.914;2022-07-18T15:12:29;2.85;;;1.10;;
39848;SDS011;25518;47.878;15.914;2022-07-18T15:14:57;3.20;;;1.50;;